sensor_id;sensor_type;location;lat;lon;timestamp;P1;durP1;ratioP1;P2;durP2;ratioP2
49556;SDS011;35462;45.048;7.666;2023-02-03T00:06:37;35.45;;;23.33;;
49556;SDS011;35462;45.048;7.666;2023-02-03T00:21:54;39.95;;;24.10;;
49556;SDS011;35462;45.048;7.666;2023-02-03T00:37:11;33.95;;;22.38;;
49556;SDS011;35462;45.048;7.666;2023-02-03T00:52:27;30.42;;;20.90;;
49556;SDS011;35462;45.048;7.666;2023-02-03T01:07:43;30.70;;;19.92;;
49556;SDS011;35462;45.048;7.666;2023-02-03T01:22:59;30.65;;;21.10;;
49556;SDS011;35462;45.048;7.666;2023-02-03T01:38:15;31.40;;;20.83;;
49556;SDS011;35462;45.048;7.666;2023-02-03T01:53:32;31.90;;;21.20;;
49556;SDS011;35462;45.048;7.666;2023-02-03T02:08:49;37.85;;;24.02;;
49556;SDS011;35462;45.048;7.666;2023-02-03T02:24:10;36.25;;;21.92;;
49556;SDS011;35462;45.048;7.666;2023-02-03T02:39:46;33.67;;;22.02;;
49556;SDS011;35462;45.048;7.666;2023-02-03T02:55:20;32.10;;;19.73;;
49556;SDS011;35462;45.048;7.666;2023-02-03T03:10:41;29.60;;;19.70;;
49556;SDS011;35462;45.048;7.666;2023-02-03T03:25:59;31.85;;;18.23;;
49556;SDS011;35462;45.048;7.666;2023-02-03T04:12:20;22.85;;;15.45;;
49556;SDS011;35462;45.048;7.666;2023-02-03T04:27:37;32.60;;;20.10;;
49556;SDS011;35462;45.048;7.666;2023-02-03T04:42:53;31.08;;;19.55;;
49556;SDS011;35462;45.048;7.666;2023-02-03T04:58:09;37.97;;;22.70;;
49556;SDS011;35462;45.048;7.666;2023-02-03T05:13:25;29.08;;;18.25;;
49556;SDS011;35462;45.048;7.666;2023-02-03T05:28:40;29.92;;;18.05;;
49556;SDS011;35462;45.048;7.666;2023-02-03T05:43:56;32.17;;;18.77;;
49556;SDS011;35462;45.048;7.666;2023-02-03T05:59:12;26.35;;;17.33;;
49556;SDS011;35462;45.048;7.666;2023-02-03T06:14:28;25.80;;;15.55;;
49556;SDS011;35462;45.048;7.666;2023-02-03T06:29:44;18.95;;;12.93;;
49556;SDS011;35462;45.048;7.666;2023-02-03T06:44:59;19.10;;;12.43;;
49556;SDS011;35462;45.048;7.666;2023-02-03T07:00:16;20.55;;;13.88;;
49556;SDS011;35462;45.048;7.666;2023-02-03T07:15:34;21.63;;;13.60;;
49556;SDS011;35462;45.048;7.666;2023-02-03T07:30:50;16.65;;;13.45;;
49556;SDS011;35462;45.048;7.666;2023-02-03T07:46:06;21.00;;;13.38;;
49556;SDS011;35462;45.048;7.666;2023-02-03T08:01:21;19.55;;;12.43;;
49556;SDS011;35462;45.048;7.666;2023-02-03T08:16:39;20.48;;;13.63;;
49556;SDS011;35462;45.048;7.666;2023-02-03T08:31:55;20.85;;;14.90;;
49556;SDS011;35462;45.048;7.666;2023-02-03T08:47:12;22.60;;;13.10;;
49556;SDS011;35462;45.048;7.666;2023-02-03T09:02:28;24.48;;;14.40;;
49556;SDS011;35462;45.048;7.666;2023-02-03T09:17:44;24.38;;;15.20;;
49556;SDS011;35462;45.048;7.666;2023-02-03T09:33:00;25.70;;;16.85;;
49556;SDS011;35462;45.048;7.666;2023-02-03T09:48:18;31.30;;;17.98;;
49556;SDS011;35462;45.048;7.666;2023-02-03T10:19:18;29.60;;;20.08;;
49556;SDS011;35462;45.048;7.666;2023-02-03T10:34:37;28.00;;;17.95;;
49556;SDS011;35462;45.048;7.666;2023-02-03T10:49:56;28.02;;;17.45;;
49556;SDS011;35462;45.048;7.666;2023-02-03T11:20:32;24.00;;;11.13;;
49556;SDS011;35462;45.048;7.666;2023-02-03T11:35:53;18.70;;;10.82;;
49556;SDS011;35462;45.048;7.666;2023-02-03T11:51:17;20.38;;;13.13;;
49556;SDS011;35462;45.048;7.666;2023-02-03T12:22:13;17.65;;;11.40;;
49556;SDS011;35462;45.048;7.666;2023-02-03T13:08:45;17.27;;;8.25;;
49556;SDS011;35462;45.048;7.666;2023-02-03T13:24:09;13.60;;;8.17;;
49556;SDS011;35462;45.048;7.666;2023-02-03T13:54:57;11.98;;;6.18;;
49556;SDS011;35462;45.048;7.666;2023-02-03T14:10:19;9.82;;;5.68;;
49556;SDS011;35462;45.048;7.666;2023-02-03T14:25:46;10.40;;;5.57;;
49556;SDS011;35462;45.048;7.666;2023-02-03T14:41:04;7.30;;;4.35;;
49556;SDS011;35462;45.048;7.666;2023-02-03T14:56:30;8.43;;;6.00;;
49556;SDS011;35462;45.048;7.666;2023-02-03T15:12:15;14.10;;;7.88;;
49556;SDS011;35462;45.048;7.666;2023-02-03T15:27:40;11.80;;;6.07;;
49556;SDS011;35462;45.048;7.666;2023-02-03T15:43:00;15.60;;;8.02;;
49556;SDS011;35462;45.048;7.666;2023-02-03T15:58:24;12.40;;;7.55;;
49556;SDS011;35462;45.048;7.666;2023-02-03T16:13:42;17.80;;;8.63;;
49556;SDS011;35462;45.048;7.666;2023-02-03T16:29:09;18.08;;;10.98;;
49556;SDS011;35462;45.048;7.666;2023-02-03T16:44:44;22.38;;;12.40;;
49556;SDS011;35462;45.048;7.666;2023-02-03T17:00:15;23.20;;;12.40;;
49556;SDS011;35462;45.048;7.666;2023-02-03T17:15:32;17.50;;;11.05;;
49556;SDS011;35462;45.048;7.666;2023-02-03T17:30:56;23.48;;;12.52;;
49556;SDS011;35462;45.048;7.666;2023-02-03T17:46:16;15.80;;;11.60;;
49556;SDS011;35462;45.048;7.666;2023-02-03T18:01:34;20.27;;;12.45;;
49556;SDS011;35462;45.048;7.666;2023-02-03T18:16:50;23.45;;;14.13;;
49556;SDS011;35462;45.048;7.666;2023-02-03T18:32:06;25.35;;;14.23;;
49556;SDS011;35462;45.048;7.666;2023-02-03T18:47:22;25.65;;;12.13;;
49556;SDS011;35462;45.048;7.666;2023-02-03T19:02:37;18.83;;;11.52;;
49556;SDS011;35462;45.048;7.666;2023-02-03T19:17:53;20.90;;;10.98;;
49556;SDS011;35462;45.048;7.666;2023-02-03T19:33:09;23.38;;;12.35;;
49556;SDS011;35462;45.048;7.666;2023-02-03T19:48:25;30.63;;;13.88;;
49556;SDS011;35462;45.048;7.666;2023-02-03T20:03:41;25.42;;;13.52;;
49556;SDS011;35462;45.048;7.666;2023-02-03T20:18:58;23.40;;;12.93;;
49556;SDS011;35462;45.048;7.666;2023-02-03T20:34:15;22.30;;;12.07;;
49556;SDS011;35462;45.048;7.666;2023-02-03T20:49:31;20.48;;;11.18;;
49556;SDS011;35462;45.048;7.666;2023-02-03T21:04:48;37.72;;;22.60;;
49556;SDS011;35462;45.048;7.666;2023-02-03T21:20:19;25.15;;;14.18;;
49556;SDS011;35462;45.048;7.666;2023-02-03T21:35:42;20.52;;;12.07;;
49556;SDS011;35462;45.048;7.666;2023-02-03T21:51:00;22.52;;;14.80;;
49556;SDS011;35462;45.048;7.666;2023-02-03T22:06:20;27.03;;;16.33;;
49556;SDS011;35462;45.048;7.666;2023-02-03T22:21:38;25.98;;;18.23;;
49556;SDS011;35462;45.048;7.666;2023-02-03T22:36:54;25.92;;;17.30;;
49556;SDS011;35462;45.048;7.666;2023-02-03T22:52:10;24.17;;;16.15;;
49556;SDS011;35462;45.048;7.666;2023-02-03T23:07:25;25.95;;;16.50;;
49556;SDS011;35462;45.048;7.666;2023-02-03T23:22:42;20.00;;;14.15;;
49556;SDS011;35462;45.048;7.666;2023-02-03T23:37:58;25.75;;;17.27;;
49556;SDS011;35462;45.048;7.666;2023-02-03T23:53:14;20.95;;;13.50;;
